Agua Dulce, California
Current Conditions -  °F | °C
As of 2:56 PM on Tuesday 21 Oct 2014 (Local Time) from KWJF Reporting Station
Clear Clear  
Wind Chill: 76°   Ceiling: Unl
Heat Index: 76°   Visibility: 10mi
Dew Point: 34°   Wind: 23mph
Humidity: 22%   Direction: 280°W
Pressure: 29.88"   Gusts: NA
Location:  34.513°N, 118.402°W
Report Text: KWJF 212156Z 28020KT 10SM CLR 24/01 A2988 RMK AO2 SLP106 T02440011
Loading
Personal Weather Stations






























Interactive Weather Map New forecast layout! Learn more

10-Day Weather Forecast

Advertisements
Track Severe Weather on mobile